sensor_id;sensor_type;location;lat;lon;timestamp;P1;durP1;ratioP1;P2;durP2;ratioP2
5133;SDS011;2585;48.696;10.066;2022-10-18T00:00:03;13.40;;;2.60;;
5133;SDS011;2585;48.696;10.066;2022-10-18T00:02:31;7.73;;;2.40;;
5133;SDS011;2585;48.696;10.066;2022-10-18T00:04:58;7.30;;;3.17;;
5133;SDS011;2585;48.696;10.066;2022-10-18T00:07:25;7.00;;;2.70;;
5133;SDS011;2585;48.696;10.066;2022-10-18T00:09:52;6.47;;;2.80;;
5133;SDS011;2585;48.696;10.066;2022-10-18T00:12:19;3.63;;;2.47;;
5133;SDS011;2585;48.696;10.066;2022-10-18T00:14:47;6.37;;;2.80;;
5133;SDS011;2585;48.696;10.066;2022-10-18T00:17:16;19.07;;;3.17;;
5133;SDS011;2585;48.696;10.066;2022-10-18T00:19:43;7.93;;;2.90;;
5133;SDS011;2585;48.696;10.066;2022-10-18T00:22:10;7.13;;;2.77;;
5133;SDS011;2585;48.696;10.066;2022-10-18T00:24:36;3.80;;;2.30;;
5133;SDS011;2585;48.696;10.066;2022-10-18T00:27:03;2.97;;;2.27;;
5133;SDS011;2585;48.696;10.066;2022-10-18T00:29:30;4.73;;;2.20;;
5133;SDS011;2585;48.696;10.066;2022-10-18T00:31:56;6.30;;;2.30;;
5133;SDS011;2585;48.696;10.066;2022-10-18T00:34:23;5.10;;;2.23;;
5133;SDS011;2585;48.696;10.066;2022-10-18T00:36:50;5.73;;;2.43;;
5133;SDS011;2585;48.696;10.066;2022-10-18T00:39:18;4.87;;;2.57;;
5133;SDS011;2585;48.696;10.066;2022-10-18T00:41:47;3.90;;;2.30;;
5133;SDS011;2585;48.696;10.066;2022-10-18T00:46:42;2.40;;;2.20;;
5133;SDS011;2585;48.696;10.066;2022-10-18T00:51:56;14.97;;;3.67;;
5133;SDS011;2585;48.696;10.066;2022-10-18T00:54:25;4.40;;;2.57;;
5133;SDS011;2585;48.696;10.066;2022-10-18T00:56:55;2.50;;;2.30;;
5133;SDS011;2585;48.696;10.066;2022-10-18T00:59:22;9.57;;;2.63;;
5133;SDS011;2585;48.696;10.066;2022-10-18T01:01:50;4.53;;;2.90;;
5133;SDS011;2585;48.696;10.066;2022-10-18T01:04:17;9.40;;;2.47;;
5133;SDS011;2585;48.696;10.066;2022-10-18T01:15:31;9.03;;;2.53;;
5133;SDS011;2585;48.696;10.066;2022-10-18T01:24:12;3.77;;;2.33;;
5133;SDS011;2585;48.696;10.066;2022-10-18T01:32:31;6.33;;;2.43;;
5133;SDS011;2585;48.696;10.066;2022-10-18T01:35:04;9.23;;;3.10;;
5133;SDS011;2585;48.696;10.066;2022-10-18T01:37:36;2.53;;;2.33;;
5133;SDS011;2585;48.696;10.066;2022-10-18T01:40:05;6.30;;;2.77;;
5133;SDS011;2585;48.696;10.066;2022-10-18T01:42:33;8.07;;;2.40;;
5133;SDS011;2585;48.696;10.066;2022-10-18T01:45:00;9.87;;;2.50;;
5133;SDS011;2585;48.696;10.066;2022-10-18T01:47:29;5.80;;;2.50;;
5133;SDS011;2585;48.696;10.066;2022-10-18T01:49:58;3.70;;;2.60;;
5133;SDS011;2585;48.696;10.066;2022-10-18T01:52:25;5.03;;;2.90;;
5133;SDS011;2585;48.696;10.066;2022-10-18T01:54:52;3.13;;;2.80;;
5133;SDS011;2585;48.696;10.066;2022-10-18T01:57:40;4.13;;;2.70;;
5133;SDS011;2585;48.696;10.066;2022-10-18T02:00:14;4.13;;;2.60;;
5133;SDS011;2585;48.696;10.066;2022-10-18T02:03:05;4.40;;;2.70;;
5133;SDS011;2585;48.696;10.066;2022-10-18T02:06:08;4.80;;;2.30;;
5133;SDS011;2585;48.696;10.066;2022-10-18T02:09:28;5.50;;;2.87;;
5133;SDS011;2585;48.696;10.066;2022-10-18T02:11:35;4.90;;;2.80;;
5133;SDS011;2585;48.696;10.066;2022-10-18T02:14:08;11.93;;;2.50;;
5133;SDS011;2585;48.696;10.066;2022-10-18T02:16:39;3.10;;;2.80;;
5133;SDS011;2585;48.696;10.066;2022-10-18T02:21:39;3.10;;;2.20;;
5133;SDS011;2585;48.696;10.066;2022-10-18T02:24:09;3.40;;;2.60;;
5133;SDS011;2585;48.696;10.066;2022-10-18T02:26:38;7.27;;;2.30;;
5133;SDS011;2585;48.696;10.066;2022-10-18T02:29:04;14.73;;;3.40;;
5133;SDS011;2585;48.696;10.066;2022-10-18T02:31:36;7.57;;;2.80;;
5133;SDS011;2585;48.696;10.066;2022-10-18T02:34:14;5.57;;;2.57;;
5133;SDS011;2585;48.696;10.066;2022-10-18T02:36:46;2.60;;;2.40;;
5133;SDS011;2585;48.696;10.066;2022-10-18T02:39:17;7.73;;;3.30;;
5133;SDS011;2585;48.696;10.066;2022-10-18T02:41:53;3.27;;;2.90;;
5133;SDS011;2585;48.696;10.066;2022-10-18T02:44:21;7.83;;;2.70;;
5133;SDS011;2585;48.696;10.066;2022-10-18T02:46:48;4.70;;;2.50;;
5133;SDS011;2585;48.696;10.066;2022-10-18T02:49:15;8.33;;;2.63;;
5133;SDS011;2585;48.696;10.066;2022-10-18T02:51:42;7.80;;;2.80;;
5133;SDS011;2585;48.696;10.066;2022-10-18T02:54:08;6.83;;;2.60;;
5133;SDS011;2585;48.696;10.066;2022-10-18T02:56:35;3.00;;;2.40;;
5133;SDS011;2585;48.696;10.066;2022-10-18T02:59:02;2.83;;;2.63;;
5133;SDS011;2585;48.696;10.066;2022-10-18T03:01:30;6.27;;;2.60;;
5133;SDS011;2585;48.696;10.066;2022-10-18T03:03:58;4.20;;;2.80;;
5133;SDS011;2585;48.696;10.066;2022-10-18T03:06:25;7.03;;;3.17;;
5133;SDS011;2585;48.696;10.066;2022-10-18T03:08:52;4.60;;;2.87;;
5133;SDS011;2585;48.696;10.066;2022-10-18T03:11:18;6.70;;;2.77;;
5133;SDS011;2585;48.696;10.066;2022-10-18T03:13:45;2.77;;;2.50;;
5133;SDS011;2585;48.696;10.066;2022-10-18T03:16:12;6.43;;;2.93;;
5133;SDS011;2585;48.696;10.066;2022-10-18T03:18:39;4.40;;;2.40;;
5133;SDS011;2585;48.696;10.066;2022-10-18T03:21:06;5.20;;;2.40;;
5133;SDS011;2585;48.696;10.066;2022-10-18T03:23:33;5.63;;;2.50;;
5133;SDS011;2585;48.696;10.066;2022-10-18T03:26:00;2.70;;;2.43;;
5133;SDS011;2585;48.696;10.066;2022-10-18T03:28:27;8.13;;;2.57;;
5133;SDS011;2585;48.696;10.066;2022-10-18T03:31:00;6.00;;;3.00;;
5133;SDS011;2585;48.696;10.066;2022-10-18T03:33:29;13.87;;;2.57;;
5133;SDS011;2585;48.696;10.066;2022-10-18T03:35:57;3.83;;;2.10;;
5133;SDS011;2585;48.696;10.066;2022-10-18T03:38:24;5.70;;;2.33;;
5133;SDS011;2585;48.696;10.066;2022-10-18T03:40:51;6.70;;;2.93;;
5133;SDS011;2585;48.696;10.066;2022-10-18T03:43:17;3.60;;;2.77;;
5133;SDS011;2585;48.696;10.066;2022-10-18T03:45:44;5.70;;;2.60;;
5133;SDS011;2585;48.696;10.066;2022-10-18T03:48:11;6.30;;;2.43;;
5133;SDS011;2585;48.696;10.066;2022-10-18T03:50:38;4.10;;;2.73;;
5133;SDS011;2585;48.696;10.066;2022-10-18T03:53:05;2.63;;;2.13;;
5133;SDS011;2585;48.696;10.066;2022-10-18T03:55:31;4.33;;;2.33;;
5133;SDS011;2585;48.696;10.066;2022-10-18T03:57:58;4.83;;;2.90;;
5133;SDS011;2585;48.696;10.066;2022-10-18T04:00:25;5.10;;;2.83;;
5133;SDS011;2585;48.696;10.066;2022-10-18T04:02:52;8.07;;;2.87;;
5133;SDS011;2585;48.696;10.066;2022-10-18T04:05:21;17.23;;;4.47;;
5133;SDS011;2585;48.696;10.066;2022-10-18T04:07:49;5.17;;;3.10;;
5133;SDS011;2585;48.696;10.066;2022-10-18T04:10:16;7.73;;;3.03;;
5133;SDS011;2585;48.696;10.066;2022-10-18T04:12:43;8.63;;;3.50;;
5133;SDS011;2585;48.696;10.066;2022-10-18T04:15:10;2.77;;;2.57;;
5133;SDS011;2585;48.696;10.066;2022-10-18T04:17:37;7.10;;;2.77;;
5133;SDS011;2585;48.696;10.066;2022-10-18T04:20:04;7.10;;;2.90;;
5133;SDS011;2585;48.696;10.066;2022-10-18T04:22:31;5.83;;;2.90;;
5133;SDS011;2585;48.696;10.066;2022-10-18T04:24:58;6.23;;;2.83;;
5133;SDS011;2585;48.696;10.066;2022-10-18T04:27:25;4.43;;;3.23;;
5133;SDS011;2585;48.696;10.066;2022-10-18T04:29:52;6.37;;;2.63;;
5133;SDS011;2585;48.696;10.066;2022-10-18T04:32:18;9.93;;;3.13;;
5133;SDS011;2585;48.696;10.066;2022-10-18T04:34:45;7.00;;;3.00;;
5133;SDS011;2585;48.696;10.066;2022-10-18T04:37:12;5.27;;;3.00;;
5133;SDS011;2585;48.696;10.066;2022-10-18T04:39:38;7.33;;;3.13;;
5133;SDS011;2585;48.696;10.066;2022-10-18T04:42:05;4.53;;;2.63;;
5133;SDS011;2585;48.696;10.066;2022-10-18T04:44:32;8.30;;;3.93;;
5133;SDS011;2585;48.696;10.066;2022-10-18T04:46:59;3.37;;;3.03;;
5133;SDS011;2585;48.696;10.066;2022-10-18T04:49:26;5.20;;;2.33;;
5133;SDS011;2585;48.696;10.066;2022-10-18T04:51:52;4.53;;;3.20;;
5133;SDS011;2585;48.696;10.066;2022-10-18T04:54:19;8.80;;;2.80;;
5133;SDS011;2585;48.696;10.066;2022-10-18T04:56:50;7.80;;;3.67;;
5133;SDS011;2585;48.696;10.066;2022-10-18T04:59:17;5.17;;;3.03;;
5133;SDS011;2585;48.696;10.066;2022-10-18T05:01:43;5.50;;;3.20;;
5133;SDS011;2585;48.696;10.066;2022-10-18T05:04:10;7.33;;;3.37;;
5133;SDS011;2585;48.696;10.066;2022-10-18T05:06:37;15.43;;;3.83;;
5133;SDS011;2585;48.696;10.066;2022-10-18T05:09:04;6.90;;;3.00;;
5133;SDS011;2585;48.696;10.066;2022-10-18T05:11:31;11.87;;;3.73;;
5133;SDS011;2585;48.696;10.066;2022-10-18T05:13:58;5.43;;;3.60;;
5133;SDS011;2585;48.696;10.066;2022-10-18T05:16:25;6.83;;;3.77;;
5133;SDS011;2585;48.696;10.066;2022-10-18T05:18:53;13.67;;;3.70;;
5133;SDS011;2585;48.696;10.066;2022-10-18T05:21:20;6.07;;;3.20;;
5133;SDS011;2585;48.696;10.066;2022-10-18T05:23:47;8.57;;;3.37;;
5133;SDS011;2585;48.696;10.066;2022-10-18T05:26:13;9.60;;;3.30;;
5133;SDS011;2585;48.696;10.066;2022-10-18T05:28:40;10.60;;;3.97;;
5133;SDS011;2585;48.696;10.066;2022-10-18T05:31:08;8.30;;;3.93;;
5133;SDS011;2585;48.696;10.066;2022-10-18T05:33:36;5.63;;;3.90;;
5133;SDS011;2585;48.696;10.066;2022-10-18T05:36:04;8.33;;;4.07;;
5133;SDS011;2585;48.696;10.066;2022-10-18T05:38:31;6.57;;;3.63;;
5133;SDS011;2585;48.696;10.066;2022-10-18T05:40:58;13.00;;;4.00;;
5133;SDS011;2585;48.696;10.066;2022-10-18T05:43:28;4.77;;;3.47;;
5133;SDS011;2585;48.696;10.066;2022-10-18T05:45:55;5.50;;;3.77;;
5133;SDS011;2585;48.696;10.066;2022-10-18T05:48:22;6.67;;;3.30;;
5133;SDS011;2585;48.696;10.066;2022-10-18T05:50:49;4.50;;;3.63;;
5133;SDS011;2585;48.696;10.066;2022-10-18T05:53:15;6.67;;;3.63;;
5133;SDS011;2585;48.696;10.066;2022-10-18T05:56:02;9.70;;;3.57;;
5133;SDS011;2585;48.696;10.066;2022-10-18T05:58:30;8.70;;;3.47;;
5133;SDS011;2585;48.696;10.066;2022-10-18T06:00:57;3.80;;;3.30;;
5133;SDS011;2585;48.696;10.066;2022-10-18T06:03:26;15.50;;;6.77;;
5133;SDS011;2585;48.696;10.066;2022-10-18T06:05:57;11.20;;;4.17;;
5133;SDS011;2585;48.696;10.066;2022-10-18T06:08:35;7.43;;;3.60;;
5133;SDS011;2585;48.696;10.066;2022-10-18T06:11:09;4.47;;;3.17;;
5133;SDS011;2585;48.696;10.066;2022-10-18T06:13:41;18.87;;;4.83;;
5133;SDS011;2585;48.696;10.066;2022-10-18T06:16:10;9.70;;;5.00;;
5133;SDS011;2585;48.696;10.066;2022-10-18T06:18:38;13.33;;;6.80;;
5133;SDS011;2585;48.696;10.066;2022-10-18T06:21:05;14.00;;;6.43;;
5133;SDS011;2585;48.696;10.066;2022-10-18T06:23:33;9.03;;;6.43;;
5133;SDS011;2585;48.696;10.066;2022-10-18T06:26:01;12.50;;;6.40;;
5133;SDS011;2585;48.696;10.066;2022-10-18T06:28:35;13.47;;;6.13;;
5133;SDS011;2585;48.696;10.066;2022-10-18T06:31:03;13.30;;;6.70;;
5133;SDS011;2585;48.696;10.066;2022-10-18T06:33:31;7.57;;;6.07;;
5133;SDS011;2585;48.696;10.066;2022-10-18T06:36:20;11.60;;;5.67;;
5133;SDS011;2585;48.696;10.066;2022-10-18T06:38:49;12.63;;;5.90;;
5133;SDS011;2585;48.696;10.066;2022-10-18T06:41:16;10.03;;;5.13;;
5133;SDS011;2585;48.696;10.066;2022-10-18T06:43:51;9.47;;;5.67;;
5133;SDS011;2585;48.696;10.066;2022-10-18T06:46:22;6.90;;;4.40;;
5133;SDS011;2585;48.696;10.066;2022-10-18T06:48:49;7.90;;;3.60;;
5133;SDS011;2585;48.696;10.066;2022-10-18T06:51:16;7.50;;;3.70;;
5133;SDS011;2585;48.696;10.066;2022-10-18T06:53:43;9.43;;;3.73;;
5133;SDS011;2585;48.696;10.066;2022-10-18T06:56:30;9.40;;;4.10;;
5133;SDS011;2585;48.696;10.066;2022-10-18T06:58:57;6.43;;;3.93;;
5133;SDS011;2585;48.696;10.066;2022-10-18T07:01:29;8.83;;;4.77;;
5133;SDS011;2585;48.696;10.066;2022-10-18T07:03:56;14.20;;;4.50;;
5133;SDS011;2585;48.696;10.066;2022-10-18T07:06:22;9.20;;;5.07;;
5133;SDS011;2585;48.696;10.066;2022-10-18T07:08:49;6.53;;;4.53;;
5133;SDS011;2585;48.696;10.066;2022-10-18T07:11:19;9.00;;;3.70;;
5133;SDS011;2585;48.696;10.066;2022-10-18T07:13:49;5.20;;;3.33;;
5133;SDS011;2585;48.696;10.066;2022-10-18T07:16:17;12.00;;;3.40;;
5133;SDS011;2585;48.696;10.066;2022-10-18T07:18:48;11.73;;;3.87;;
5133;SDS011;2585;48.696;10.066;2022-10-18T07:21:19;8.63;;;3.90;;
5133;SDS011;2585;48.696;10.066;2022-10-18T07:23:47;5.93;;;3.53;;
5133;SDS011;2585;48.696;10.066;2022-10-18T07:26:28;3.30;;;2.93;;
5133;SDS011;2585;48.696;10.066;2022-10-18T07:29:07;6.20;;;3.13;;
5133;SDS011;2585;48.696;10.066;2022-10-18T07:31:36;9.63;;;3.43;;
5133;SDS011;2585;48.696;10.066;2022-10-18T07:34:04;15.63;;;4.30;;
5133;SDS011;2585;48.696;10.066;2022-10-18T07:36:32;10.03;;;4.53;;
5133;SDS011;2585;48.696;10.066;2022-10-18T07:38:58;15.93;;;3.97;;
5133;SDS011;2585;48.696;10.066;2022-10-18T07:41:25;6.40;;;3.40;;
5133;SDS011;2585;48.696;10.066;2022-10-18T07:43:52;10.07;;;4.20;;
5133;SDS011;2585;48.696;10.066;2022-10-18T07:46:20;19.50;;;4.90;;
5133;SDS011;2585;48.696;10.066;2022-10-18T07:48:47;21.90;;;4.93;;
5133;SDS011;2585;48.696;10.066;2022-10-18T07:51:15;5.93;;;4.43;;
5133;SDS011;2585;48.696;10.066;2022-10-18T07:53:42;11.03;;;4.00;;
5133;SDS011;2585;48.696;10.066;2022-10-18T07:56:13;10.73;;;4.37;;
5133;SDS011;2585;48.696;10.066;2022-10-18T07:58:42;15.00;;;4.97;;
5133;SDS011;2585;48.696;10.066;2022-10-18T08:01:10;12.30;;;4.97;;
5133;SDS011;2585;48.696;10.066;2022-10-18T08:03:38;6.07;;;4.40;;
5133;SDS011;2585;48.696;10.066;2022-10-18T08:06:06;7.80;;;5.27;;
5133;SDS011;2585;48.696;10.066;2022-10-18T08:08:35;9.40;;;4.73;;
5133;SDS011;2585;48.696;10.066;2022-10-18T08:11:05;16.80;;;4.97;;
5133;SDS011;2585;48.696;10.066;2022-10-18T08:13:36;6.93;;;4.63;;
5133;SDS011;2585;48.696;10.066;2022-10-18T08:16:04;6.50;;;4.10;;
5133;SDS011;2585;48.696;10.066;2022-10-18T08:18:32;9.60;;;5.23;;
5133;SDS011;2585;48.696;10.066;2022-10-18T08:21:00;7.23;;;5.20;;
5133;SDS011;2585;48.696;10.066;2022-10-18T08:23:29;9.90;;;5.33;;
5133;SDS011;2585;48.696;10.066;2022-10-18T08:25:56;11.43;;;4.93;;
5133;SDS011;2585;48.696;10.066;2022-10-18T08:28:26;11.13;;;4.50;;
5133;SDS011;2585;48.696;10.066;2022-10-18T08:30:53;13.93;;;6.50;;
5133;SDS011;2585;48.696;10.066;2022-10-18T08:33:20;13.60;;;6.10;;
5133;SDS011;2585;48.696;10.066;2022-10-18T08:35:56;12.43;;;6.87;;
5133;SDS011;2585;48.696;10.066;2022-10-18T08:38:24;7.20;;;5.93;;
5133;SDS011;2585;48.696;10.066;2022-10-18T08:40:51;12.23;;;5.63;;
5133;SDS011;2585;48.696;10.066;2022-10-18T08:43:37;14.57;;;4.80;;
5133;SDS011;2585;48.696;10.066;2022-10-18T08:46:11;12.03;;;4.67;;
5133;SDS011;2585;48.696;10.066;2022-10-18T08:48:41;12.00;;;6.27;;
5133;SDS011;2585;48.696;10.066;2022-10-18T08:51:31;7.20;;;4.03;;
5133;SDS011;2585;48.696;10.066;2022-10-18T08:54:06;7.87;;;3.60;;
5133;SDS011;2585;48.696;10.066;2022-10-18T08:56:40;8.53;;;4.23;;
5133;SDS011;2585;48.696;10.066;2022-10-18T08:59:12;4.77;;;3.20;;
5133;SDS011;2585;48.696;10.066;2022-10-18T09:01:46;5.63;;;3.10;;
5133;SDS011;2585;48.696;10.066;2022-10-18T09:24:21;11.70;;;3.73;;
5133;SDS011;2585;48.696;10.066;2022-10-18T09:26:53;6.57;;;3.27;;
5133;SDS011;2585;48.696;10.066;2022-10-18T09:29:38;3.03;;;2.57;;
5133;SDS011;2585;48.696;10.066;2022-10-18T09:37:47;12.00;;;2.90;;
5133;SDS011;2585;48.696;10.066;2022-10-18T09:40:20;8.67;;;3.30;;
5133;SDS011;2585;48.696;10.066;2022-10-18T09:43:06;4.10;;;2.37;;
5133;SDS011;2585;48.696;10.066;2022-10-18T09:45:39;6.80;;;2.30;;
5133;SDS011;2585;48.696;10.066;2022-10-18T09:48:16;9.00;;;2.77;;
5133;SDS011;2585;48.696;10.066;2022-10-18T09:53:40;7.00;;;2.30;;
5133;SDS011;2585;48.696;10.066;2022-10-18T09:56:09;5.13;;;2.50;;
5133;SDS011;2585;48.696;10.066;2022-10-18T09:58:46;5.37;;;2.40;;
5133;SDS011;2585;48.696;10.066;2022-10-18T10:01:15;7.10;;;2.47;;
5133;SDS011;2585;48.696;10.066;2022-10-18T10:03:46;5.10;;;2.43;;
5133;SDS011;2585;48.696;10.066;2022-10-18T10:09:28;5.77;;;2.40;;
5133;SDS011;2585;48.696;10.066;2022-10-18T10:11:49;5.07;;;2.33;;
5133;SDS011;2585;48.696;10.066;2022-10-18T10:22:06;7.80;;;2.80;;
5133;SDS011;2585;48.696;10.066;2022-10-18T10:24:48;4.60;;;2.50;;
5133;SDS011;2585;48.696;10.066;2022-10-18T10:29:51;2.40;;;2.17;;
5133;SDS011;2585;48.696;10.066;2022-10-18T10:32:22;4.93;;;2.27;;
5133;SDS011;2585;48.696;10.066;2022-10-18T10:34:53;9.77;;;2.70;;
5133;SDS011;2585;48.696;10.066;2022-10-18T10:37:30;7.00;;;2.90;;
5133;SDS011;2585;48.696;10.066;2022-10-18T10:40:06;5.43;;;2.63;;
5133;SDS011;2585;48.696;10.066;2022-10-18T10:42:53;5.63;;;3.07;;
5133;SDS011;2585;48.696;10.066;2022-10-18T10:45:56;7.30;;;3.27;;
5133;SDS011;2585;48.696;10.066;2022-10-18T10:51:40;3.43;;;2.70;;
5133;SDS011;2585;48.696;10.066;2022-10-18T10:54:15;5.17;;;2.97;;
5133;SDS011;2585;48.696;10.066;2022-10-18T11:04:40;4.47;;;2.87;;
5133;SDS011;2585;48.696;10.066;2022-10-18T11:15:05;10.80;;;2.77;;
5133;SDS011;2585;48.696;10.066;2022-10-18T11:20:26;5.10;;;3.00;;
5133;SDS011;2585;48.696;10.066;2022-10-18T11:23:04;8.43;;;2.43;;
5133;SDS011;2585;48.696;10.066;2022-10-18T11:28:36;5.20;;;2.87;;
5133;SDS011;2585;48.696;10.066;2022-10-18T11:33:58;7.63;;;2.50;;
5133;SDS011;2585;48.696;10.066;2022-10-18T11:37:19;5.33;;;2.80;;
5133;SDS011;2585;48.696;10.066;2022-10-18T11:40:02;4.93;;;2.80;;
5133;SDS011;2585;48.696;10.066;2022-10-18T11:42:56;8.20;;;3.00;;
5133;SDS011;2585;48.696;10.066;2022-10-18T11:52:01;10.93;;;4.30;;
5133;SDS011;2585;48.696;10.066;2022-10-18T11:54:55;5.10;;;2.70;;
5133;SDS011;2585;48.696;10.066;2022-10-18T12:00:42;5.53;;;3.10;;
5133;SDS011;2585;48.696;10.066;2022-10-18T12:03:20;38.00;;;6.40;;
5133;SDS011;2585;48.696;10.066;2022-10-18T12:06:11;13.60;;;2.80;;
5133;SDS011;2585;48.696;10.066;2022-10-18T12:08:43;3.87;;;2.47;;
5133;SDS011;2585;48.696;10.066;2022-10-18T12:11:14;7.27;;;2.77;;
5133;SDS011;2585;48.696;10.066;2022-10-18T12:13:55;4.40;;;2.50;;
5133;SDS011;2585;48.696;10.066;2022-10-18T12:16:28;6.27;;;2.63;;
5133;SDS011;2585;48.696;10.066;2022-10-18T12:19:20;3.20;;;2.07;;
5133;SDS011;2585;48.696;10.066;2022-10-18T12:21:55;9.43;;;3.03;;
5133;SDS011;2585;48.696;10.066;2022-10-18T12:24:30;6.93;;;3.20;;
5133;SDS011;2585;48.696;10.066;2022-10-18T12:26:59;4.03;;;2.60;;
5133;SDS011;2585;48.696;10.066;2022-10-18T12:32:28;3.70;;;2.50;;
5133;SDS011;2585;48.696;10.066;2022-10-18T12:35:01;7.23;;;2.80;;
5133;SDS011;2585;48.696;10.066;2022-10-18T12:40:12;6.27;;;2.90;;
5133;SDS011;2585;48.696;10.066;2022-10-18T12:42:47;3.80;;;2.80;;
5133;SDS011;2585;48.696;10.066;2022-10-18T12:45:29;6.63;;;2.90;;
5133;SDS011;2585;48.696;10.066;2022-10-18T12:48:00;5.00;;;2.60;;
5133;SDS011;2585;48.696;10.066;2022-10-18T12:50:34;6.93;;;2.97;;
5133;SDS011;2585;48.696;10.066;2022-10-18T12:53:15;10.77;;;2.90;;
5133;SDS011;2585;48.696;10.066;2022-10-18T12:55:46;11.40;;;3.40;;
5133;SDS011;2585;48.696;10.066;2022-10-18T13:13:32;22.97;;;5.30;;
5133;SDS011;2585;48.696;10.066;2022-10-18T13:17:01;7.00;;;3.23;;
5133;SDS011;2585;48.696;10.066;2022-10-18T13:24:34;8.27;;;3.17;;
5133;SDS011;2585;48.696;10.066;2022-10-18T13:27:27;5.90;;;3.00;;
5133;SDS011;2585;48.696;10.066;2022-10-18T13:36:22;3.77;;;2.40;;
5133;SDS011;2585;48.696;10.066;2022-10-18T13:41:24;8.30;;;3.20;;
5133;SDS011;2585;48.696;10.066;2022-10-18T14:06:11;6.50;;;2.20;;
5133;SDS011;2585;48.696;10.066;2022-10-18T14:12:02;5.70;;;2.50;;
5133;SDS011;2585;48.696;10.066;2022-10-18T14:14:40;5.47;;;2.33;;
5133;SDS011;2585;48.696;10.066;2022-10-18T14:22:42;4.17;;;2.33;;
5133;SDS011;2585;48.696;10.066;2022-10-18T14:25:48;9.37;;;2.90;;
5133;SDS011;2585;48.696;10.066;2022-10-18T14:28:12;2.73;;;2.47;;
5133;SDS011;2585;48.696;10.066;2022-10-18T14:36:08;7.20;;;2.40;;
5133;SDS011;2585;48.696;10.066;2022-10-18T14:38:47;8.30;;;2.37;;
5133;SDS011;2585;48.696;10.066;2022-10-18T14:43:50;6.07;;;2.60;;
5133;SDS011;2585;48.696;10.066;2022-10-18T14:48:54;4.30;;;2.70;;
5133;SDS011;2585;48.696;10.066;2022-10-18T14:51:26;8.83;;;2.90;;
5133;SDS011;2585;48.696;10.066;2022-10-18T14:53:56;10.07;;;3.67;;
5133;SDS011;2585;48.696;10.066;2022-10-18T14:56:28;10.30;;;3.47;;
5133;SDS011;2585;48.696;10.066;2022-10-18T14:58:56;4.63;;;2.70;;
5133;SDS011;2585;48.696;10.066;2022-10-18T15:01:28;5.77;;;2.90;;
5133;SDS011;2585;48.696;10.066;2022-10-18T15:04:04;3.60;;;2.97;;
5133;SDS011;2585;48.696;10.066;2022-10-18T15:06:34;4.57;;;2.60;;
5133;SDS011;2585;48.696;10.066;2022-10-18T15:09:02;6.23;;;2.50;;
5133;SDS011;2585;48.696;10.066;2022-10-18T15:11:30;3.97;;;2.67;;
5133;SDS011;2585;48.696;10.066;2022-10-18T15:14:02;11.93;;;2.93;;
5133;SDS011;2585;48.696;10.066;2022-10-18T15:16:32;4.80;;;2.23;;
5133;SDS011;2585;48.696;10.066;2022-10-18T15:24:43;3.00;;;2.17;;
5133;SDS011;2585;48.696;10.066;2022-10-18T15:30:15;5.07;;;2.03;;
5133;SDS011;2585;48.696;10.066;2022-10-18T15:32:49;4.20;;;2.50;;
5133;SDS011;2585;48.696;10.066;2022-10-18T15:35:20;7.03;;;2.27;;
5133;SDS011;2585;48.696;10.066;2022-10-18T15:37:59;3.93;;;2.57;;
5133;SDS011;2585;48.696;10.066;2022-10-18T15:40:44;4.13;;;1.77;;
5133;SDS011;2585;48.696;10.066;2022-10-18T15:45:54;3.23;;;2.00;;
5133;SDS011;2585;48.696;10.066;2022-10-18T15:48:32;8.73;;;2.23;;
5133;SDS011;2585;48.696;10.066;2022-10-18T15:51:01;3.63;;;2.20;;
5133;SDS011;2585;48.696;10.066;2022-10-18T15:53:34;3.77;;;2.10;;
5133;SDS011;2585;48.696;10.066;2022-10-18T15:56:30;4.57;;;2.03;;
5133;SDS011;2585;48.696;10.066;2022-10-18T15:59:00;5.37;;;1.93;;
5133;SDS011;2585;48.696;10.066;2022-10-18T16:01:36;4.17;;;1.90;;
5133;SDS011;2585;48.696;10.066;2022-10-18T16:04:07;5.40;;;2.30;;
5133;SDS011;2585;48.696;10.066;2022-10-18T16:06:43;13.97;;;3.20;;
5133;SDS011;2585;48.696;10.066;2022-10-18T16:09:11;4.20;;;1.83;;
5133;SDS011;2585;48.696;10.066;2022-10-18T16:11:41;3.67;;;2.30;;
5133;SDS011;2585;48.696;10.066;2022-10-18T16:14:08;9.17;;;1.80;;
5133;SDS011;2585;48.696;10.066;2022-10-18T16:16:35;3.73;;;2.30;;
5133;SDS011;2585;48.696;10.066;2022-10-18T16:19:02;7.40;;;4.07;;
5133;SDS011;2585;48.696;10.066;2022-10-18T16:21:36;5.60;;;4.13;;
5133;SDS011;2585;48.696;10.066;2022-10-18T16:24:04;7.90;;;2.53;;
5133;SDS011;2585;48.696;10.066;2022-10-18T16:26:31;5.90;;;2.40;;
5133;SDS011;2585;48.696;10.066;2022-10-18T16:28:58;5.30;;;2.33;;
5133;SDS011;2585;48.696;10.066;2022-10-18T16:31:27;4.23;;;2.90;;
5133;SDS011;2585;48.696;10.066;2022-10-18T16:33:55;3.70;;;2.10;;
5133;SDS011;2585;48.696;10.066;2022-10-18T16:38:51;6.10;;;2.00;;
5133;SDS011;2585;48.696;10.066;2022-10-18T16:41:22;2.67;;;2.40;;
5133;SDS011;2585;48.696;10.066;2022-10-18T16:43:49;4.37;;;2.70;;
5133;SDS011;2585;48.696;10.066;2022-10-18T16:46:24;3.57;;;2.10;;
5133;SDS011;2585;48.696;10.066;2022-10-18T16:48:53;5.73;;;2.60;;
5133;SDS011;2585;48.696;10.066;2022-10-18T16:51:21;11.47;;;2.97;;
5133;SDS011;2585;48.696;10.066;2022-10-18T16:53:48;3.33;;;2.43;;
5133;SDS011;2585;48.696;10.066;2022-10-18T16:56:16;4.50;;;3.33;;
5133;SDS011;2585;48.696;10.066;2022-10-18T16:58:45;3.30;;;2.33;;
5133;SDS011;2585;48.696;10.066;2022-10-18T17:01:12;6.00;;;2.77;;
5133;SDS011;2585;48.696;10.066;2022-10-18T17:03:42;4.43;;;2.67;;
5133;SDS011;2585;48.696;10.066;2022-10-18T17:06:12;3.20;;;2.20;;
5133;SDS011;2585;48.696;10.066;2022-10-18T17:08:42;8.23;;;2.53;;
5133;SDS011;2585;48.696;10.066;2022-10-18T17:11:09;4.27;;;2.50;;
5133;SDS011;2585;48.696;10.066;2022-10-18T17:13:36;3.80;;;2.87;;
5133;SDS011;2585;48.696;10.066;2022-10-18T17:16:03;4.93;;;2.80;;
5133;SDS011;2585;48.696;10.066;2022-10-18T17:18:31;4.50;;;2.23;;
5133;SDS011;2585;48.696;10.066;2022-10-18T17:20:58;7.47;;;2.93;;
5133;SDS011;2585;48.696;10.066;2022-10-18T17:23:28;4.50;;;2.67;;
5133;SDS011;2585;48.696;10.066;2022-10-18T17:25:55;4.87;;;2.30;;
5133;SDS011;2585;48.696;10.066;2022-10-18T17:28:40;4.13;;;2.30;;
5133;SDS011;2585;48.696;10.066;2022-10-18T17:31:07;6.77;;;2.50;;
5133;SDS011;2585;48.696;10.066;2022-10-18T17:33:34;6.00;;;3.07;;
5133;SDS011;2585;48.696;10.066;2022-10-18T17:36:01;3.30;;;2.70;;
5133;SDS011;2585;48.696;10.066;2022-10-18T17:38:28;3.60;;;3.03;;
5133;SDS011;2585;48.696;10.066;2022-10-18T17:40:55;8.47;;;3.30;;
5133;SDS011;2585;48.696;10.066;2022-10-18T17:43:22;6.60;;;2.80;;
5133;SDS011;2585;48.696;10.066;2022-10-18T17:45:52;3.17;;;2.93;;
5133;SDS011;2585;48.696;10.066;2022-10-18T17:48:20;3.80;;;2.83;;
5133;SDS011;2585;48.696;10.066;2022-10-18T17:50:47;4.63;;;3.23;;
5133;SDS011;2585;48.696;10.066;2022-10-18T17:53:14;5.00;;;3.73;;
5133;SDS011;2585;48.696;10.066;2022-10-18T17:55:43;10.33;;;3.10;;
5133;SDS011;2585;48.696;10.066;2022-10-18T17:58:10;5.10;;;3.33;;
5133;SDS011;2585;48.696;10.066;2022-10-18T18:00:36;6.13;;;3.23;;
5133;SDS011;2585;48.696;10.066;2022-10-18T18:03:03;8.30;;;3.50;;
5133;SDS011;2585;48.696;10.066;2022-10-18T18:05:31;9.40;;;3.20;;
5133;SDS011;2585;48.696;10.066;2022-10-18T18:07:59;7.00;;;3.37;;
5133;SDS011;2585;48.696;10.066;2022-10-18T18:10:30;3.80;;;2.90;;
5133;SDS011;2585;48.696;10.066;2022-10-18T18:12:58;3.83;;;3.30;;
5133;SDS011;2585;48.696;10.066;2022-10-18T18:15:25;6.13;;;3.60;;
5133;SDS011;2585;48.696;10.066;2022-10-18T18:17:52;6.53;;;3.27;;
5133;SDS011;2585;48.696;10.066;2022-10-18T18:20:23;4.20;;;3.80;;
5133;SDS011;2585;48.696;10.066;2022-10-18T18:22:51;6.30;;;3.97;;
5133;SDS011;2585;48.696;10.066;2022-10-18T18:25:18;4.37;;;3.97;;
5133;SDS011;2585;48.696;10.066;2022-10-18T18:27:45;5.10;;;4.40;;
5133;SDS011;2585;48.696;10.066;2022-10-18T18:30:11;7.50;;;3.73;;
5133;SDS011;2585;48.696;10.066;2022-10-18T18:32:40;4.17;;;3.10;;
5133;SDS011;2585;48.696;10.066;2022-10-18T18:35:07;6.47;;;4.17;;
5133;SDS011;2585;48.696;10.066;2022-10-18T18:37:34;6.60;;;3.80;;
5133;SDS011;2585;48.696;10.066;2022-10-18T18:40:01;7.00;;;4.30;;